Time;durP1;ratioP1;P1;durP2;ratioP2;P2;SDS_P1;SDS_P2;PMS_P1;PMS_P2;Temp;Humidity;BMP_temperature;BMP_pressure;BME280_temperature;BME280_humidity;BME280_pressure;Samples;Min_cycle;Max_cycle;Signal;HPM_P1;HPM_P2
2024/01/24 00:00:36;;;;;;;1.80;1.30;;;15.90;58.50;;;;;;5054234;28;20217;-69
2024/01/24 00:03:02;;;;;;;1.95;1.05;;;15.90;58.50;;;;;;5053847;28;20265;-69
2024/01/24 00:05:28;;;;;;;1.63;1.20;;;15.90;58.50;;;;;;5054039;28;20262;-69
2024/01/24 00:07:53;;;;;;;3.22;1.58;;;15.90;58.60;;;;;;5054286;28;20652;-69
2024/01/24 00:10:19;;;;;;;2.47;1.17;;;15.90;58.60;;;;;;5053559;28;20179;-69
2024/01/24 00:12:44;;;;;;;1.80;1.08;;;15.90;58.70;;;;;;5054465;28;20171;-69
2024/01/24 00:15:10;;;;;;;1.33;1.23;;;16.00;58.70;;;;;;5054399;28;20240;-68
2024/01/24 00:17:35;;;;;;;2.42;1.08;;;15.90;58.70;;;;;;5053266;28;20175;-69
2024/01/24 00:20:01;;;;;;;1.85;1.20;;;15.90;58.70;;;;;;5054051;28;20286;-69
2024/01/24 00:22:27;;;;;;;1.83;0.98;;;15.90;58.80;;;;;;5052753;28;20274;-69
2024/01/24 00:24:53;;;;;;;1.58;1.15;;;15.90;58.80;;;;;;5053240;28;20654;-69
2024/01/24 00:27:19;;;;;;;1.60;1.20;;;15.90;58.80;;;;;;5053638;28;20175;-69
2024/01/24 00:29:44;;;;;;;2.30;1.25;;;15.90;58.80;;;;;;5054099;28;20171;-69
2024/01/24 00:32:10;;;;;;;1.90;1.27;;;15.90;58.90;;;;;;5053336;28;20644;-69
2024/01/24 00:34:35;;;;;;;1.67;0.98;;;15.90;58.80;;;;;;5053610;28;20630;-69
2024/01/24 00:37:01;;;;;;;2.00;1.08;;;15.90;58.80;;;;;;5053720;28;20171;-69
2024/01/24 00:39:26;;;;;;;2.35;1.00;;;15.80;58.90;;;;;;5052690;28;20709;-69
2024/01/24 00:41:53;;;;;;;2.45;1.20;;;15.80;59.00;;;;;;5053757;28;20220;-69
2024/01/24 00:44:18;;;;;;;1.90;1.08;;;15.80;58.90;;;;;;5053339;28;20618;-69
2024/01/24 00:46:44;;;;;;;1.50;0.90;;;15.80;58.90;;;;;;5053006;28;20209;-69
2024/01/24 00:49:10;;;;;;;3.10;1.23;;;15.80;59.00;;;;;;5053649;28;20634;-68
2024/01/24 00:51:36;;;;;;;1.88;1.02;;;15.80;59.00;;;;;;5053161;28;20197;-69
2024/01/24 00:54:02;;;;;;;2.22;1.10;;;15.80;59.10;;;;;;5064162;28;20632;-69
2024/01/24 00:56:28;;;;;;;1.63;0.85;;;15.80;59.10;;;;;;5072095;28;20249;-69
2024/01/24 00:58:53;;;;;;;1.17;0.98;;;15.80;59.00;;;;;;5072793;28;20556;-69
2024/01/24 01:01:19;;;;;;;1.05;0.68;;;15.80;59.10;;;;;;5072882;28;20583;-69
2024/01/24 01:03:45;;;;;;;1.75;0.98;;;15.80;59.10;;;;;;5073227;28;20536;-69
2024/01/24 01:06:10;;;;;;;1.60;1.00;;;15.80;59.00;;;;;;5072497;28;20186;-69
2024/01/24 01:08:36;;;;;;;3.55;1.60;;;15.80;59.10;;;;;;5073038;28;20185;-69
2024/01/24 01:11:01;;;;;;;2.67;1.08;;;15.80;59.10;;;;;;5073273;28;20185;-69
2024/01/24 01:13:27;;;;;;;1.58;1.00;;;15.80;59.20;;;;;;5072291;28;20182;-69
2024/01/24 01:15:52;;;;;;;0.63;0.63;;;15.80;59.10;;;;;;5072956;28;20185;-68
2024/01/24 01:18:18;;;;;;;3.10;1.13;;;15.80;59.10;;;;;;5072691;28;20182;-69
2024/01/24 01:20:43;;;;;;;1.67;0.90;;;15.80;59.10;;;;;;5072212;28;20210;-69
2024/01/24 01:23:09;;;;;;;1.08;0.98;;;15.80;59.10;;;;;;5073056;28;20170;-69
2024/01/24 01:25:34;;;;;;;0.85;0.73;;;15.80;59.10;;;;;;5072513;28;20519;-69
2024/01/24 01:28:00;;;;;;;1.58;0.90;;;15.80;59.20;;;;;;5072108;28;20652;-68
2024/01/24 01:30:25;;;;;;;2.15;1.02;;;15.80;59.20;;;;;;5072528;28;20177;-68
2024/01/24 01:32:51;;;;;;;1.98;1.08;;;15.80;59.30;;;;;;5072799;28;20253;-68
2024/01/24 01:35:16;;;;;;;2.03;0.90;;;15.70;59.30;;;;;;5071491;28;20166;-69
2024/01/24 01:37:45;;;;;;;3.13;0.93;;;15.80;59.30;;;;;;5072775;28;20178;-69
2024/01/24 01:40:10;;;;;;;2.03;0.80;;;15.70;59.20;;;;;;5072502;28;20680;-69
2024/01/24 01:42:36;;;;;;;0.82;0.80;;;15.80;59.30;;;;;;5071533;28;20189;-69
2024/01/24 01:45:03;;;;;;;1.73;0.80;;;15.80;59.30;;;;;;5072484;28;20259;-69
2024/01/24 01:47:29;;;;;;;1.90;0.90;;;15.70;59.20;;;;;;5071055;28;20174;-69
2024/01/24 01:49:54;;;;;;;0.90;0.68;;;15.80;59.40;;;;;;5070415;28;20174;-69
2024/01/24 01:52:20;;;;;;;0.90;0.60;;;15.80;59.40;;;;;;5071118;28;20177;-68
2024/01/24 01:54:46;;;;;;;1.30;0.80;;;15.80;59.40;;;;;;5053673;28;20245;-69
2024/01/24 01:57:12;;;;;;;2.17;0.60;;;15.80;59.40;;;;;;5050608;28;20174;-69
2024/01/24 01:59:39;;;;;;;1.38;0.70;;;15.80;59.50;;;;;;5050751;28;20206;-69
2024/01/24 02:02:04;;;;;;;1.38;0.85;;;15.70;59.50;;;;;;5051570;28;20179;-69
2024/01/24 02:04:30;;;;;;;1.13;0.70;;;15.70;59.50;;;;;;5034203;28;20167;-69
2024/01/24 02:06:55;;;;;;;0.60;0.60;;;15.80;59.60;;;;;;5051298;28;20235;-69
2024/01/24 02:09:22;;;;;;;1.27;0.82;;;15.70;59.60;;;;;;5051302;28;20229;-69
2024/01/24 02:11:47;;;;;;;1.30;0.98;;;15.70;59.60;;;;;;5050955;28;20553;-69
2024/01/24 02:14:13;;;;;;;0.98;0.80;;;15.70;59.60;;;;;;5052228;28;20179;-68
2024/01/24 02:16:38;;;;;;;0.82;0.77;;;15.70;59.60;;;;;;5051114;28;20183;-68
2024/01/24 02:19:07;;;;;;;0.80;0.70;;;15.70;59.70;;;;;;5051919;28;20570;-69
2024/01/24 02:21:33;;;;;;;0.77;0.70;;;15.70;59.70;;;;;;5051902;28;20215;-69
2024/01/24 02:24:02;;;;;;;0.50;0.50;;;15.70;59.70;;;;;;5051557;28;20182;-69
2024/01/24 02:26:27;;;;;;;0.93;0.60;;;15.70;59.70;;;;;;5051740;28;20198;-69
2024/01/24 02:28:53;;;;;;;0.60;0.60;;;15.70;59.80;;;;;;5052011;28;20201;-69
2024/01/24 02:31:19;;;;;;;0.90;0.80;;;15.70;59.70;;;;;;5050996;28;20675;-69
2024/01/24 02:33:45;;;;;;;1.40;0.88;;;15.70;59.80;;;;;;5051900;28;20189;-68
2024/01/24 02:36:14;;;;;;;0.52;0.52;;;15.70;59.80;;;;;;5052245;28;20262;-69
2024/01/24 02:38:40;;;;;;;0.98;0.50;;;15.70;59.90;;;;;;5051135;28;20554;-69
2024/01/24 02:41:06;;;;;;;0.60;0.60;;;15.70;59.80;;;;;;5051848;28;20704;-69
2024/01/24 02:43:37;;;;;;;0.88;0.68;;;15.70;59.80;;;;;;5051848;28;20186;-69
2024/01/24 02:46:03;;;;;;;1.00;0.55;;;15.70;59.90;;;;;;5052456;28;20190;-69
2024/01/24 02:48:28;;;;;;;1.90;0.57;;;15.70;59.90;;;;;;5055672;28;20175;-69
2024/01/24 02:50:54;;;;;;;0.60;0.60;;;15.70;59.90;;;;;;5056185;28;20222;-69
2024/01/24 02:53:19;;;;;;;0.50;0.50;;;15.70;59.90;;;;;;5060004;28;20683;-69
2024/01/24 02:55:45;;;;;;;0.80;0.80;;;15.70;60.10;;;;;;5075766;28;20178;-69
2024/01/24 02:58:11;;;;;;;1.08;0.45;;;15.70;60.10;;;;;;5075755;28;20181;-69
2024/01/24 03:00:37;;;;;;;1.10;0.73;;;15.70;60.20;;;;;;5074553;28;20760;-69
2024/01/24 03:03:02;;;;;;;0.65;0.65;;;15.60;60.10;;;;;;5075879;28;20185;-69
2024/01/24 03:05:31;;;;;;;0.68;0.60;;;15.60;60.10;;;;;;5074594;28;20180;-70
2024/01/24 03:07:59;;;;;;;0.77;0.60;;;15.60;60.10;;;;;;5075753;28;20170;-69
2024/01/24 03:10:28;;;;;;;0.50;0.43;;;15.70;60.10;;;;;;5075243;28;20507;-70
2024/01/24 03:12:54;;;;;;;0.85;0.80;;;15.60;60.10;;;;;;5074677;28;20633;-69
2024/01/24 03:15:19;;;;;;;0.70;0.60;;;15.60;60.10;;;;;;5074960;28;20178;-70
2024/01/24 03:17:45;;;;;;;0.50;0.50;;;15.60;60.10;;;;;;5074277;28;20189;-69
2024/01/24 03:20:12;;;;;;;0.57;0.40;;;15.60;60.30;;;;;;5074698;28;20683;-69
2024/01/24 03:22:38;;;;;;;0.82;0.63;;;15.60;60.20;;;;;;5075217;28;20178;-70
2024/01/24 03:25:04;;;;;;;0.60;0.60;;;15.60;60.30;;;;;;5075244;28;20231;-69
2024/01/24 03:27:29;;;;;;;0.57;0.40;;;15.60;60.10;;;;;;5074183;28;20206;-68
2024/01/24 03:29:55;;;;;;;0.50;0.50;;;15.60;60.20;;;;;;5075007;28;20173;-69
2024/01/24 03:32:21;;;;;;;0.57;0.50;;;15.60;60.30;;;;;;5074733;28;20757;-68
2024/01/24 03:34:56;;;;;;;0.40;0.40;;;15.60;60.20;;;;;;5074320;28;20175;-69
2024/01/24 03:37:21;;;;;;;0.50;0.50;;;15.60;60.40;;;;;;5074546;28;20181;-70
2024/01/24 03:39:53;;;;;;;0.52;0.50;;;15.60;60.40;;;;;;5074880;28;20210;-69
2024/01/24 03:42:18;;;;;;;0.40;0.40;;;15.60;60.40;;;;;;5073858;28;20185;-69
2024/01/24 03:44:44;;;;;;;0.98;0.55;;;15.60;60.30;;;;;;5075054;28;20178;-69
2024/01/24 03:47:10;;;;;;;1.30;0.50;;;15.60;60.30;;;;;;5074845;28;20563;-70
2024/01/24 03:49:36;;;;;;;1.10;0.60;;;15.60;60.40;;;;;;5073705;28;20269;-68
2024/01/24 03:52:02;;;;;;;0.55;0.55;;;15.50;60.40;;;;;;5074861;28;20240;-69
2024/01/24 03:54:27;;;;;;;0.95;0.70;;;15.60;60.40;;;;;;5059231;28;20222;-69
2024/01/24 03:56:53;;;;;;;1.67;0.60;;;15.60;60.30;;;;;;5053916;28;20585;-69
2024/01/24 03:59:19;;;;;;;0.65;0.40;;;15.60;60.30;;;;;;5054391;28;20640;-69
2024/01/24 04:01:44;;;;;;;1.05;0.60;;;15.60;60.20;;;;;;5054048;28;20208;-69
2024/01/24 04:04:10;;;;;;;0.73;0.57;;;15.50;60.30;;;;;;5054555;28;20179;-68
2024/01/24 04:06:38;;;;;;;1.08;0.68;;;15.60;60.30;;;;;;5054330;28;20183;-69
2024/01/24 04:09:03;;;;;;;2.08;0.63;;;15.50;60.20;;;;;;5053721;28;20182;-70
2024/01/24 04:11:29;;;;;;;2.38;0.65;;;15.50;60.20;;;;;;5053983;28;20175;-69
2024/01/24 04:13:56;;;;;;;1.08;0.63;;;15.60;60.20;;;;;;5054504;28;20187;-68
2024/01/24 04:16:22;;;;;;;1.10;0.60;;;15.50;60.20;;;;;;5053187;28;20549;-67
2024/01/24 04:18:50;;;;;;;1.13;0.70;;;15.50;60.30;;;;;;5054366;28;20186;-68
2024/01/24 04:21:15;;;;;;;1.85;0.60;;;15.60;60.30;;;;;;5054139;28;20313;-68
2024/01/24 04:23:41;;;;;;;1.40;0.75;;;15.50;60.20;;;;;;5053545;28;20618;-68
2024/01/24 04:26:07;;;;;;;2.42;1.20;;;15.60;60.10;;;;;;5054002;28;20190;-67
2024/01/24 04:28:32;;;;;;;1.63;0.73;;;15.50;60.20;;;;;;5053748;28;20531;-68
2024/01/24 04:30:58;;;;;;;3.08;0.90;;;15.50;60.20;;;;;;5053504;28;20179;-68
2024/01/24 04:33:24;;;;;;;1.45;0.85;;;15.50;60.10;;;;;;5053812;28;20175;-68
2024/01/24 04:35:50;;;;;;;0.98;0.70;;;15.50;60.00;;;;;;5053929;28;20174;-68
2024/01/24 04:38:15;;;;;;;2.35;1.08;;;15.50;60.10;;;;;;5052936;28;20178;-68
2024/01/24 04:40:41;;;;;;;2.95;0.88;;;15.50;60.00;;;;;;5053782;28;20260;-68
2024/01/24 04:43:07;;;;;;;1.70;0.80;;;15.50;60.10;;;;;;5054012;28;20182;-69
2024/01/24 04:45:33;;;;;;;2.97;1.40;;;15.50;60.20;;;;;;5052879;28;20187;-67
2024/01/24 04:47:58;;;;;;;1.58;0.88;;;15.50;60.00;;;;;;5053759;28;20171;-68
2024/01/24 04:50:24;;;;;;;3.08;1.10;;;15.50;60.00;;;;;;5053340;28;20178;-67
2024/01/24 04:52:49;;;;;;;1.65;1.10;;;15.50;60.10;;;;;;5054194;28;20178;-69
2024/01/24 04:55:15;;;;;;;3.90;1.33;;;15.50;60.00;;;;;;5073857;28;20171;-69
2024/01/24 04:57:41;;;;;;;3.10;1.20;;;15.50;60.00;;;;;;5073518;28;20256;-69
2024/01/24 05:00:08;;;;;;;3.33;0.95;;;15.50;59.90;;;;;;5072733;28;20210;-70
2024/01/24 05:02:33;;;;;;;4.82;1.38;;;15.50;59.80;;;;;;5073325;28;20182;-69
2024/01/24 05:04:59;;;;;;;2.78;0.95;;;15.50;59.90;;;;;;5072892;28;20177;-69
2024/01/24 05:07:24;;;;;;;3.38;1.55;;;15.50;59.90;;;;;;5073174;28;20178;-70
2024/01/24 05:09:50;;;;;;;6.00;1.95;;;15.50;59.90;;;;;;5072702;28;20166;-68
2024/01/24 05:12:16;;;;;;;3.90;1.75;;;15.50;59.80;;;;;;5072386;28;20193;-69
2024/01/24 05:14:42;;;;;;;4.88;1.65;;;15.40;59.80;;;;;;5073131;28;20560;-69
2024/01/24 05:17:08;;;;;;;3.35;1.38;;;15.40;59.90;;;;;;5073101;28;20618;-69
2024/01/24 05:19:33;;;;;;;5.10;1.40;;;15.40;59.80;;;;;;5071968;28;20257;-69
2024/01/24 05:21:59;;;;;;;3.75;1.52;;;15.40;59.80;;;;;;5072897;28;20568;-69
2024/01/24 05:24:24;;;;;;;3.97;1.85;;;15.40;59.80;;;;;;5072492;28;20622;-69
2024/01/24 05:26:50;;;;;;;3.88;1.70;;;15.40;59.80;;;;;;5072344;28;20182;-68
2024/01/24 05:29:16;;;;;;;5.32;1.73;;;15.40;59.80;;;;;;5072569;28;20166;-69
2024/01/24 05:31:41;;;;;;;8.38;2.22;;;15.40;59.70;;;;;;5072891;28;20170;-69
2024/01/24 05:34:08;;;;;;;4.53;1.70;;;15.40;59.70;;;;;;5072071;28;20261;-69
2024/01/24 05:36:34;;;;;;;6.07;1.70;;;15.40;59.70;;;;;;5072258;28;20617;-69
2024/01/24 05:38:59;;;;;;;5.57;1.90;;;15.40;59.60;;;;;;5072626;28;20190;-69
2024/01/24 05:41:25;;;;;;;4.68;1.38;;;15.40;59.70;;;;;;5071585;28;20226;-69
2024/01/24 05:43:50;;;;;;;5.50;1.58;;;15.40;59.60;;;;;;5072612;28;20175;-69
2024/01/24 05:46:16;;;;;;;6.00;2.33;;;15.40;59.60;;;;;;5072300;28;20224;-69
2024/01/24 05:48:41;;;;;;;3.90;1.80;;;15.40;59.60;;;;;;5071849;28;20186;-69
2024/01/24 05:51:07;;;;;;;5.70;2.05;;;15.40;59.60;;;;;;5072528;28;20178;-68
2024/01/24 05:53:33;;;;;;;7.32;2.38;;;15.40;59.60;;;;;;5064576;28;20219;-68
2024/01/24 05:55:58;;;;;;;6.25;2.15;;;15.40;59.60;;;;;;5051632;28;20179;-69
2024/01/24 05:58:27;;;;;;;8.35;1.88;;;15.40;59.50;;;;;;5052214;28;20266;-69
2024/01/24 06:00:53;;;;;;;4.75;1.67;;;15.40;59.60;;;;;;5052406;28;20226;-69
2024/01/24 06:03:19;;;;;;;7.88;2.42;;;15.40;59.60;;;;;;5051426;28;20179;-69
2024/01/24 06:05:44;;;;;;;5.68;2.05;;;15.40;59.60;;;;;;5052285;28;20568;-69
2024/01/24 06:08:10;;;;;;;6.38;2.28;;;15.40;59.50;;;;;;5051377;28;20635;-70
2024/01/24 06:10:35;;;;;;;6.10;2.22;;;15.40;59.60;;;;;;5051963;28;20174;-69
2024/01/24 06:13:01;;;;;;;5.53;2.10;;;15.40;59.50;;;;;;5052322;28;20608;-69
2024/01/24 06:15:27;;;;;;;6.55;2.22;;;15.40;59.50;;;;;;5051282;28;20224;-69
2024/01/24 06:17:53;;;;;;;8.13;2.38;;;15.40;59.50;;;;;;5052178;28;20178;-69
2024/01/24 06:20:19;;;;;;;8.00;2.17;;;15.40;59.50;;;;;;5050917;28;20207;-69
2024/01/24 06:22:45;;;;;;;6.88;2.60;;;15.30;59.50;;;;;;5051177;28;20514;-69
2024/01/24 06:25:11;;;;;;;8.57;2.33;;;15.40;59.40;;;;;;5052207;28;20175;-68
2024/01/24 06:27:37;;;;;;;6.05;2.30;;;15.40;59.30;;;;;;5051932;28;20269;-69
2024/01/24 06:30:04;;;;;;;7.45;2.85;;;15.40;59.30;;;;;;5051433;28;20175;-68
2024/01/24 06:32:29;;;;;;;7.63;2.70;;;15.40;59.20;;;;;;5051676;28;20189;-68
2024/01/24 06:34:55;;;;;;;8.88;2.85;;;15.40;59.10;;;;;;5051996;28;20175;-69
2024/01/24 06:37:21;;;;;;;9.68;2.95;;;15.40;59.10;;;;;;5050818;28;20181;-69
2024/01/24 06:39:46;;;;;;;7.70;2.78;;;15.50;59.10;;;;;;5051935;28;20681;-69
2024/01/24 06:42:12;;;;;;;9.75;2.38;;;15.50;59.10;;;;;;5052003;28;20261;-69
2024/01/24 06:44:37;;;;;;;6.03;2.58;;;15.50;59.10;;;;;;5050755;28;20525;-69
2024/01/24 06:47:03;;;;;;;8.25;2.80;;;15.40;59.10;;;;;;5051844;28;20179;-68
2024/01/24 06:49:28;;;;;;;8.63;2.90;;;15.40;59.00;;;;;;5051464;28;20175;-69
2024/01/24 06:51:55;;;;;;;8.18;3.03;;;15.50;59.00;;;;;;5050914;28;20630;-68
2024/01/24 06:54:21;;;;;;;9.25;3.15;;;15.50;59.10;;;;;;5065333;28;20222;-68
2024/01/24 06:56:47;;;;;;;7.78;3.08;;;15.60;59.10;;;;;;5071926;28;20182;-68
2024/01/24 06:59:13;;;;;;;5.45;2.47;;;15.60;59.00;;;;;;5071068;28;20194;-68
2024/01/24 07:01:39;;;;;;;5.20;2.25;;;15.70;59.00;;;;;;5071608;28;20217;-68
2024/01/24 07:04:05;;;;;;;7.70;2.97;;;15.80;59.00;;;;;;5071721;28;20174;-68
2024/01/24 07:06:31;;;;;;;6.80;2.95;;;15.90;58.80;;;;;;5070606;28;20687;-69
2024/01/24 07:08:56;;;;;;;8.52;3.05;;;16.10;58.50;;;;;;5071515;28;20657;-69
2024/01/24 07:11:22;;;;;;;6.90;2.97;;;16.20;58.30;;;;;;5071277;28;20269;-70
2024/01/24 07:13:47;;;;;;;7.57;3.15;;;16.40;58.20;;;;;;5070987;28;20254;-68
2024/01/24 07:16:13;;;;;;;4.95;2.53;;;16.50;57.90;;;;;;5071676;28;20267;-68
2024/01/24 07:18:38;;;;;;;5.57;2.28;;;16.60;57.60;;;;;;5070568;28;20304;-69
2024/01/24 07:21:06;;;;;;;6.57;2.38;;;16.80;57.40;;;;;;5071436;28;20695;-68
2024/01/24 07:23:32;;;;;;;5.20;2.50;;;17.00;57.20;;;;;;5071346;28;20236;-69
2024/01/24 07:25:58;;;;;;;10.10;2.80;;;17.10;56.90;;;;;;5070884;28;20633;-68
2024/01/24 07:28:23;;;;;;;7.40;2.67;;;17.10;56.60;;;;;;5070986;28;20209;-68
2024/01/24 07:30:49;;;;;;;7.05;3.15;;;17.20;56.60;;;;;;5071595;28;20224;-68
2024/01/24 07:33:14;;;;;;;7.18;2.33;;;17.20;56.50;;;;;;5073654;28;20166;-68
2024/01/24 07:35:40;;;;;;;8.05;2.85;;;17.30;56.40;;;;;;5074663;28;20178;-68
2024/01/24 07:38:06;;;;;;;9.00;3.08;;;17.40;56.20;;;;;;5075016;28;20232;-68
2024/01/24 07:40:31;;;;;;;7.68;3.05;;;17.40;56.00;;;;;;5074091;28;20627;-69
2024/01/24 07:42:57;;;;;;;7.07;2.75;;;17.40;55.90;;;;;;5074928;28;20224;-69
2024/01/24 07:45:22;;;;;;;9.20;2.95;;;17.40;55.80;;;;;;5074696;28;20178;-68
2024/01/24 07:47:49;;;;;;;6.95;2.78;;;17.40;55.90;;;;;;5074219;28;20201;-68
2024/01/24 07:50:15;;;;;;;7.53;2.33;;;17.50;55.80;;;;;;5074772;28;20190;-68
2024/01/24 07:52:41;;;;;;;7.07;2.72;;;17.40;55.80;;;;;;5074501;28;20265;-68
2024/01/24 07:55:06;;;;;;;7.07;2.78;;;17.40;55.80;;;;;;5053825;28;20627;-68
2024/01/24 07:57:32;;;;;;;8.38;3.42;;;17.40;55.80;;;;;;5054380;28;20179;-68
2024/01/24 07:59:58;;;;;;;6.60;2.78;;;17.40;55.90;;;;;;5054616;28;20202;-69
2024/01/24 08:02:24;;;;;;;6.60;3.03;;;17.40;55.90;;;;;;5053538;28;20229;-69
2024/01/24 08:04:50;;;;;;;7.57;2.92;;;17.40;55.90;;;;;;5054468;28;20168;-68
2024/01/24 08:07:15;;;;;;;5.82;2.55;;;17.40;55.90;;;;;;5054368;28;20183;-69
2024/01/24 08:09:41;;;;;;;7.20;2.78;;;17.40;55.80;;;;;;5053501;28;20182;-70
2024/01/24 08:12:07;;;;;;;8.02;3.08;;;17.40;55.70;;;;;;5054322;28;20191;-68
2024/01/24 08:14:33;;;;;;;8.27;3.25;;;17.40;55.70;;;;;;5054055;28;20179;-69
2024/01/24 08:17:08;;;;;;;9.50;3.08;;;17.40;55.90;;;;;;5053464;28;20186;-68
2024/01/24 08:19:33;;;;;;;8.07;3.00;;;17.40;55.80;;;;;;5053776;28;20183;-68
2024/01/24 08:21:59;;;;;;;7.68;2.90;;;17.40;55.70;;;;;;5053436;28;20537;-69
2024/01/24 08:24:25;;;;;;;9.80;3.00;;;17.40;56.30;;;;;;5053985;28;20246;-69
2024/01/24 08:26:50;;;;;;;7.55;3.13;;;17.40;55.60;;;;;;5054117;28;20221;-68
2024/01/24 08:29:17;;;;;;;7.72;3.13;;;17.40;55.60;;;;;;5053183;28;20171;-68
2024/01/24 08:31:43;;;;;;;6.63;3.13;;;17.40;55.70;;;;;;5054024;28;20217;-68
2024/01/24 08:34:08;;;;;;;9.98;3.08;;;17.30;55.70;;;;;;5053754;28;20226;-68
2024/01/24 08:36:34;;;;;;;7.82;3.38;;;17.40;55.70;;;;;;5053095;28;20171;-68
2024/01/24 08:39:00;;;;;;;7.05;2.95;;;17.40;55.60;;;;;;5054022;28;20530;-69
2024/01/24 08:41:25;;;;;;;9.00;3.10;;;17.30;55.70;;;;;;5053243;28;20214;-68
2024/01/24 08:43:52;;;;;;;10.43;3.15;;;17.30;55.70;;;;;;5052321;28;20182;-69
2024/01/24 08:46:17;;;;;;;8.85;3.25;;;17.30;55.80;;;;;;5053507;28;20186;-68
2024/01/24 08:48:43;;;;;;;8.63;3.50;;;17.20;55.90;;;;;;5053510;28;20544;-68
2024/01/24 08:51:09;;;;;;;7.78;3.10;;;17.20;56.00;;;;;;5053095;28;20209;-68
2024/01/24 08:53:36;;;;;;;8.68;3.55;;;17.10;55.90;;;;;;5060512;28;20305;-69
2024/01/24 08:56:02;;;;;;;8.10;3.25;;;17.10;56.00;;;;;;5073732;28;20182;-68
2024/01/24 08:58:27;;;;;;;8.75;3.13;;;17.10;56.00;;;;;;5072530;28;20671;-68
2024/01/24 09:00:53;;;;;;;11.82;3.58;;;17.10;56.10;;;;;;5073439;28;20303;-69
2024/01/24 09:03:18;;;;;;;9.60;3.50;;;17.10;56.10;;;;;;5073048;28;20569;-68
2024/01/24 09:05:44;;;;;;;8.10;3.10;;;17.10;56.00;;;;;;5073027;28;20858;-69
2024/01/24 09:08:09;;;;;;;7.55;3.00;;;17.00;56.00;;;;;;5073548;28;20713;-69
2024/01/24 09:10:36;;;;;;;8.93;2.92;;;17.00;56.20;;;;;;5073213;28;20661;-71
2024/01/24 09:13:01;;;;;;;9.30;3.53;;;16.90;56.20;;;;;;5072527;28;20170;-69
2024/01/24 09:15:27;;;;;;;8.90;3.83;;;16.80;56.30;;;;;;5072828;28;20174;-68
2024/01/24 09:17:52;;;;;;;6.50;3.25;;;16.90;56.30;;;;;;5072928;28;20183;-68
2024/01/24 09:20:18;;;;;;;7.82;3.13;;;16.90;56.30;;;;;;5072100;28;20259;-68
2024/01/24 09:22:44;;;;;;;9.13;3.30;;;16.90;56.20;;;;;;5073124;28;20197;-68
2024/01/24 09:25:09;;;;;;;7.75;3.40;;;17.00;56.90;;;;;;5072446;28;20728;-69
2024/01/24 09:27:35;;;;;;;8.13;3.08;;;17.00;56.10;;;;;;5072579;28;20201;-68
2024/01/24 09:30:00;;;;;;;9.90;3.45;;;17.00;56.10;;;;;;5072904;28;20657;-68
2024/01/24 09:32:26;;;;;;;9.70;3.75;;;17.00;56.00;;;;;;5071683;28;20954;-68
2024/01/24 09:34:52;;;;;;;11.48;3.83;;;16.90;56.10;;;;;;5073012;28;20175;-68
2024/01/24 09:37:19;;;;;;;13.85;4.25;;;17.00;56.10;;;;;;5072502;28;20173;-69
2024/01/24 09:39:45;;;;;;;10.40;3.67;;;16.90;56.10;;;;;;5071959;28;20217;-68
2024/01/24 09:42:17;;;;;;;9.57;3.15;;;16.90;56.10;;;;;;5072762;28;20262;-68
2024/01/24 09:44:43;;;;;;;10.13;4.07;;;16.90;56.10;;;;;;5072629;28;20172;-68
2024/01/24 09:47:09;;;;;;;10.38;3.72;;;16.90;56.10;;;;;;5070686;28;20638;-68
2024/01/24 09:49:36;;;;;;;11.05;4.10;;;16.90;56.10;;;;;;5054633;28;20169;-68
2024/01/24 09:52:02;;;;;;;10.30;3.88;;;16.90;56.10;;;;;;5071447;28;20174;-68
2024/01/24 09:54:28;;;;;;;10.48;4.32;;;16.90;56.20;;;;;;5056156;28;20222;-68
2024/01/24 09:56:53;;;;;;;10.05;3.72;;;16.80;56.20;;;;;;5034563;28;20646;-68
2024/01/24 09:59:19;;;;;;;11.35;4.18;;;16.80;56.20;;;;;;5050804;28;20175;-68
2024/01/24 10:01:44;;;;;;;9.55;3.92;;;16.80;56.30;;;;;;5051484;28;20203;-68
2024/01/24 10:04:10;;;;;;;13.02;4.63;;;16.80;56.30;;;;;;5052415;28;20179;-68
2024/01/24 10:06:38;;;;;;;11.93;3.90;;;16.80;56.30;;;;;;5034324;28;20171;-68
2024/01/24 10:09:04;;;;;;;10.85;3.55;;;16.80;56.40;;;;;;5051749;28;20206;-70
2024/01/24 10:11:30;;;;;;;10.40;3.50;;;16.80;57.00;;;;;;5051939;28;20198;-69
2024/01/24 10:13:58;;;;;;;10.25;3.83;;;16.80;56.40;;;;;;5052132;28;20171;-68
2024/01/24 10:16:24;;;;;;;13.95;4.10;;;16.80;56.30;;;;;;5051078;28;20183;-68
2024/01/24 10:18:50;;;;;;;14.55;3.75;;;16.80;56.40;;;;;;5052332;28;20171;-68
2024/01/24 10:21:15;;;;;;;8.25;3.85;;;16.80;56.40;;;;;;5052016;28;20219;-69
2024/01/24 10:23:43;;;;;;;11.18;4.32;;;16.80;56.50;;;;;;5051529;28;20171;-69
2024/01/24 10:26:09;;;;;;;9.65;3.70;;;16.80;56.50;;;;;;5052028;28;20175;-68
2024/01/24 10:28:37;;;;;;;11.52;4.53;;;16.70;56.40;;;;;;5050982;28;20504;-68
2024/01/24 10:31:03;;;;;;;12.95;4.28;;;16.70;56.40;;;;;;5034848;28;20175;-69
2024/01/24 10:33:32;;;;;;;13.32;3.85;;;16.70;56.40;;;;;;5051637;28;20289;-70
2024/01/24 10:35:57;;;;;;;11.80;4.07;;;16.70;56.50;;;;;;5051368;28;20236;-67
2024/01/24 10:38:23;;;;;;;14.18;3.88;;;16.70;56.40;;;;;;5050473;28;20179;-66
2024/01/24 10:40:51;;;;;;;12.68;4.22;;;16.70;56.50;;;;;;5050533;28;20207;-66
2024/01/24 10:43:17;;;;;;;13.57;4.78;;;16.70;56.50;;;;;;5049513;28;20693;-66
2024/01/24 10:45:45;;;;;;;10.77;3.97;;;16.70;56.50;;;;;;5050898;28;20262;-67
2024/01/24 10:48:11;;;;;;;10.40;3.78;;;16.70;56.50;;;;;;5033895;28;20171;-66
2024/01/24 10:50:37;;;;;;;12.15;4.38;;;16.60;56.60;;;;;;5050954;28;20183;-67
2024/01/24 10:53:03;;;;;;;11.13;4.32;;;16.70;56.60;;;;;;5051417;28;20198;-67
2024/01/24 10:55:29;;;;;;;11.90;4.22;;;16.70;56.70;;;;;;5033637;28;20218;-66
2024/01/24 10:57:55;;;;;;;14.32;4.82;;;16.70;57.30;;;;;;5049843;28;20183;-67
2024/01/24 11:00:22;;;;;;;9.98;4.30;;;16.70;56.60;;;;;;5051320;28;20207;-67
2024/01/24 11:02:49;;;;;;;13.00;4.43;;;16.60;56.50;;;;;;5051743;28;20179;-68
2024/01/24 11:05:47;;;;;;;12.02;4.57;;;16.60;56.50;;;;;;5051021;28;20176;-68
2024/01/24 11:08:40;;;;;;;13.75;4.15;;;16.60;56.50;;;;;;5054866;28;20579;-68
2024/01/24 11:11:08;;;;;;;10.70;4.53;;;16.70;56.50;;;;;;5054772;28;20579;-68
2024/01/24 11:13:34;;;;;;;11.35;4.05;;;16.60;56.40;;;;;;5054125;28;20183;-67
2024/01/24 11:16:00;;;;;;;11.77;4.35;;;16.60;56.40;;;;;;5055505;28;20232;-67
2024/01/24 11:18:31;;;;;;;11.35;4.63;;;16.60;56.40;;;;;;5054451;28;20175;-67
2024/01/24 11:20:57;;;;;;;10.95;4.57;;;16.60;56.40;;;;;;5055257;28;20258;-67
2024/01/24 11:23:45;;;;;;;10.65;4.72;;;16.70;56.40;;;;;;5055244;28;20179;-68
2024/01/24 11:26:17;;;;;;;12.43;4.60;;;16.60;56.30;;;;;;5054510;28;20291;-67
2024/01/24 11:28:44;;;;;;;10.70;4.32;;;16.60;56.30;;;;;;5055160;28;20183;-67
2024/01/24 11:31:09;;;;;;;11.35;4.25;;;16.60;56.40;;;;;;5054826;28;20213;-68
2024/01/24 11:33:35;;;;;;;13.40;4.65;;;16.60;56.40;;;;;;5054100;28;20237;-67
2024/01/24 11:36:02;;;;;;;12.40;4.20;;;16.60;56.40;;;;;;5055460;28;20179;-68
2024/01/24 11:38:28;;;;;;;10.95;3.78;;;16.60;56.40;;;;;;5054482;28;20179;-70
2024/01/24 11:41:01;;;;;;;13.13;5.00;;;16.60;56.30;;;;;;5054230;28;20215;-67
2024/01/24 11:43:28;;;;;;;13.40;4.50;;;16.60;56.30;;;;;;5054733;28;20196;-67
2024/01/24 11:46:00;;;;;;;12.30;4.45;;;16.60;56.30;;;;;;5054283;28;20179;-67
2024/01/24 11:48:26;;;;;;;11.35;4.40;;;16.60;56.30;;;;;;5054727;28;20182;-66
2024/01/24 11:50:59;;;;;;;14.32;4.78;;;16.60;56.20;;;;;;5054909;28;20186;-66
2024/01/24 11:53:25;;;;;;;13.02;4.93;;;16.60;56.20;;;;;;5059746;28;20222;-67
2024/01/24 11:55:53;;;;;;;13.15;4.30;;;16.60;56.20;;;;;;5074698;28;20596;-67
2024/01/24 11:58:18;;;;;;;14.00;4.53;;;16.60;56.20;;;;;;5074291;28;20253;-67
2024/01/24 12:00:44;;;;;;;13.82;5.07;;;16.60;56.20;;;;;;5074014;28;20293;-67
2024/01/24 12:03:12;;;;;;;11.23;4.32;;;16.60;56.30;;;;;;5074709;28;20166;-67
2024/01/24 12:05:38;;;;;;;12.18;4.82;;;16.60;56.30;;;;;;5073220;28;20267;-67
2024/01/24 12:08:06;;;;;;;11.95;4.88;;;16.60;56.20;;;;;;5055929;28;20269;-67
2024/01/24 12:10:32;;;;;;;11.95;3.75;;;16.60;56.30;;;;;;5074051;28;20676;-67
2024/01/24 12:12:57;;;;;;;13.30;4.47;;;16.60;56.20;;;;;;5074258;28;20171;-68
2024/01/24 12:15:23;;;;;;;14.18;4.80;;;16.60;56.20;;;;;;5072242;28;20186;-67
2024/01/24 12:17:48;;;;;;;11.60;4.38;;;16.60;56.20;;;;;;5073852;28;20751;-66
2024/01/24 12:20:23;;;;;;;13.32;4.18;;;16.60;56.20;;;;;;5073394;28;20739;-67
2024/01/24 12:22:49;;;;;;;10.75;3.78;;;16.60;56.30;;;;;;5073367;28;20205;-67
2024/01/24 12:25:14;;;;;;;12.38;4.53;;;16.50;56.20;;;;;;5072857;28;20644;-67
2024/01/24 12:27:40;;;;;;;12.57;4.63;;;16.60;56.20;;;;;;5073895;28;20201;-67
2024/01/24 12:30:06;;;;;;;12.73;3.80;;;16.50;56.30;;;;;;5073286;28;20652;-67
2024/01/24 12:32:32;;;;;;;14.77;4.55;;;16.50;56.20;;;;;;5072375;28;20178;-67
2024/01/24 12:34:58;;;;;;;9.15;4.30;;;16.50;56.20;;;;;;5073673;28;20174;-66
2024/01/24 12:37:24;;;;;;;14.85;4.93;;;16.50;56.20;;;;;;5073280;28;20257;-68
2024/01/24 12:39:53;;;;;;;10.45;4.53;;;16.50;56.20;;;;;;5073610;28;20213;-67